createdAt,value
2019-04-14T00:01:54.428Z,2.58
2019-04-14T00:04:27.194Z,2.59
2019-04-14T00:06:59.198Z,2.60
2019-04-14T00:09:31.491Z,2.60
2019-04-14T00:12:06.294Z,2.61
2019-04-14T00:14:36.572Z,2.59
2019-04-14T00:17:08.740Z,2.59
2019-04-14T00:19:39.891Z,2.59
2019-04-14T00:22:11.654Z,2.60
2019-04-14T00:24:44.571Z,2.60
2019-04-14T00:27:15.591Z,2.62
2019-04-14T00:29:47.850Z,2.62
2019-04-14T00:32:22.583Z,2.51
2019-04-14T00:35:08.238Z,2.55
2019-04-14T00:37:59.389Z,2.60
2019-04-14T00:40:32.922Z,2.60
2019-04-14T00:43:15.650Z,2.61
2019-04-14T00:45:53.069Z,2.64
2019-04-14T00:48:24.154Z,2.63
2019-04-14T00:50:56.286Z,2.67
2019-04-14T00:53:27.507Z,2.68
2019-04-14T00:55:59.532Z,2.70
2019-04-14T00:58:30.762Z,2.71
2019-04-14T01:01:02.731Z,2.74
2019-04-14T01:03:35.205Z,2.74
2019-04-14T01:06:07.540Z,2.78
2019-04-14T01:08:38.601Z,2.81
2019-04-14T01:11:09.664Z,2.81
2019-04-14T01:13:41.782Z,2.94
2019-04-14T01:16:20.175Z,3.05
2019-04-14T01:18:49.331Z,3.18
2019-04-14T01:21:21.792Z,3.31
2019-04-14T01:23:52.817Z,3.34
2019-04-14T01:26:24.653Z,3.36
2019-04-14T01:28:56.763Z,3.35
2019-04-14T01:31:27.790Z,3.35
2019-04-14T01:33:59.840Z,3.30
2019-04-14T01:36:31.954Z,3.28
2019-04-14T01:39:03.079Z,3.24
2019-04-14T01:41:34.699Z,3.21
2019-04-14T01:44:06.845Z,3.17
2019-04-14T01:46:39.021Z,3.12
2019-04-14T01:49:10.068Z,3.08
2019-04-14T01:51:42.613Z,3.03
2019-04-14T01:54:15.188Z,2.99
2019-04-14T01:56:53.708Z,2.95
2019-04-14T01:59:24.669Z,2.92
2019-04-14T02:01:56.941Z,2.88
2019-04-14T02:04:28.872Z,2.85
2019-04-14T02:06:59.802Z,2.81
2019-04-14T02:09:31.608Z,2.77
2019-04-14T02:12:03.759Z,2.71
2019-04-14T02:14:34.825Z,2.67
2019-04-14T02:17:06.450Z,2.63
2019-04-14T02:19:41.709Z,2.60
2019-04-14T02:22:13.714Z,2.58
2019-04-14T02:24:45.985Z,2.55
2019-04-14T02:27:16.967Z,2.53
2019-04-14T02:29:47.903Z,2.50
2019-04-14T02:32:49.489Z,2.47
2019-04-14T02:35:22.775Z,2.45
2019-04-14T02:37:58.971Z,2.43
2019-04-14T02:40:34.798Z,2.40
2019-04-14T02:43:04.048Z,2.38
2019-04-14T02:45:40.241Z,2.34
2019-04-14T02:50:32.640Z,2.33
2019-04-14T02:53:27.134Z,2.31
2019-04-14T02:55:42.511Z,2.32
2019-04-14T02:58:19.592Z,2.31
2019-04-14T03:00:50.827Z,2.30
2019-04-14T03:03:27.864Z,2.32
2019-04-14T03:06:02.941Z,2.32
2019-04-14T03:08:26.034Z,2.34
2019-04-14T03:10:55.807Z,2.30
2019-04-14T03:13:36.951Z,2.32
2019-04-14T03:16:02.170Z,2.38
2019-04-14T03:18:48.407Z,2.38
2019-04-14T03:26:54.463Z,2.42
2019-04-14T03:29:43.398Z,2.41
2019-04-14T03:34:39.174Z,2.41
2019-04-14T03:42:21.256Z,2.37
2019-04-14T03:44:48.628Z,2.35
2019-04-14T03:47:25.590Z,2.36
2019-04-14T03:49:56.423Z,2.36
2019-04-14T03:52:31.991Z,2.39
2019-04-14T03:54:50.090Z,2.40
2019-04-14T03:57:08.236Z,2.41
2019-04-14T03:59:39.303Z,2.43
2019-04-14T04:02:10.247Z,2.42
2019-04-14T04:04:42.270Z,2.42
2019-04-14T04:07:13.487Z,2.48
2019-04-14T04:09:46.026Z,2.50
2019-04-14T04:12:18.164Z,2.52
2019-04-14T04:14:49.135Z,2.56
2019-04-14T04:17:27.691Z,2.62
2019-04-14T04:20:06.718Z,2.70
2019-04-14T04:22:43.448Z,2.80
2019-04-14T04:25:16.235Z,3.02
2019-04-14T04:27:52.619Z,3.36
2019-04-14T04:30:28.098Z,3.72
2019-04-14T04:33:13.314Z,4.05
2019-04-14T04:35:45.829Z,4.59
2019-04-14T04:38:31.284Z,4.59
2019-04-14T04:41:02.271Z,4.86
2019-04-14T04:43:34.072Z,5.19
2019-04-14T04:46:05.111Z,5.39
2019-04-14T04:48:37.119Z,5.61
2019-04-14T04:51:09.224Z,5.87
2019-04-14T04:53:40.317Z,6.10
2019-04-14T04:56:12.183Z,6.26
2019-04-14T04:58:43.501Z,6.48
2019-04-14T05:01:14.548Z,6.72
2019-04-14T05:03:45.582Z,6.99
2019-04-14T05:06:42.164Z,7.19
2019-04-14T05:09:27.514Z,7.47
2019-04-14T05:12:19.593Z,7.50
2019-04-14T05:14:55.064Z,7.86
2019-04-14T05:17:27.763Z,8.19
2019-04-14T05:19:58.682Z,8.09
2019-04-14T05:22:29.576Z,8.12
2019-04-14T05:25:01.589Z,8.43
2019-04-14T05:27:32.542Z,8.65
2019-04-14T05:30:04.727Z,8.72
2019-04-14T05:32:36.942Z,8.53
2019-04-14T05:35:09.508Z,8.68
2019-04-14T05:37:40.640Z,8.85
2019-04-14T05:40:12.767Z,8.95
2019-04-14T05:42:45.081Z,9.21
2019-04-14T05:45:16.221Z,8.90
2019-04-14T05:47:48.518Z,8.93
2019-04-14T05:50:20.329Z,8.76
2019-04-14T05:52:51.532Z,8.89
2019-04-14T05:55:24.201Z,8.89
2019-04-14T05:57:56.705Z,8.93
2019-04-14T06:00:28.252Z,9.06
2019-04-14T06:03:02.040Z,8.94
2019-04-14T06:05:34.018Z,8.72
2019-04-14T06:08:05.172Z,8.50
2019-04-14T06:10:36.316Z,8.27
2019-04-14T06:13:07.249Z,8.12
2019-04-14T06:15:38.238Z,7.97
2019-04-14T06:18:09.241Z,7.93
2019-04-14T06:20:40.299Z,8.12
2019-04-14T06:23:11.369Z,8.29
2019-04-14T06:25:43.508Z,8.34
2019-04-14T06:28:14.454Z,8.38
2019-04-14T06:31:05.214Z,8.74
2019-04-14T06:33:40.517Z,8.96
2019-04-14T06:36:29.490Z,9.16
2019-04-14T06:39:02.203Z,9.09
2019-04-14T06:41:36.148Z,9.12
2019-04-14T06:44:07.321Z,9.04
2019-04-14T06:46:38.415Z,8.89
2019-04-14T06:49:09.473Z,9.06
2019-04-14T06:51:41.221Z,8.81
2019-04-14T06:54:12.369Z,8.99
2019-04-14T06:56:44.289Z,9.02
2019-04-14T06:59:15.349Z,8.66
2019-04-14T07:01:48.877Z,8.60
2019-04-14T07:04:19.977Z,8.63
2019-04-14T07:06:51.463Z,8.77
2019-04-14T07:09:22.951Z,8.99
2019-04-14T07:11:55.024Z,9.23
2019-04-14T07:14:26.164Z,9.42
2019-04-14T07:16:57.129Z,9.39
2019-04-14T07:19:28.137Z,9.35
2019-04-14T07:21:59.208Z,9.36
2019-04-14T07:24:30.171Z,9.43
2019-04-14T07:27:02.041Z,9.30
2019-04-14T07:29:37.333Z,9.28
2019-04-14T07:32:26.150Z,9.27
2019-04-14T07:35:07.805Z,8.94
2019-04-14T07:37:40.373Z,9.02
2019-04-14T07:40:12.995Z,9.18
2019-04-14T07:42:46.469Z,9.06
2019-04-14T07:45:18.999Z,8.99
2019-04-14T07:47:57.509Z,9.18
2019-04-14T07:50:36.178Z,8.85
2019-04-14T07:53:21.492Z,9.12
2019-04-14T07:55:54.063Z,9.03
2019-04-14T07:58:33.428Z,9.13
2019-04-14T08:01:09.770Z,9.14
2019-04-14T08:03:58.414Z,9.09
2019-04-14T08:06:29.367Z,9.28
2019-04-14T08:09:00.455Z,9.14
2019-04-14T08:11:31.432Z,9.22
2019-04-14T08:14:02.483Z,9.07
2019-04-14T08:16:33.469Z,9.23
2019-04-14T08:19:04.431Z,9.27
2019-04-14T08:21:35.371Z,8.96
2019-04-14T08:24:06.327Z,9.27
2019-04-14T08:26:37.320Z,9.22
2019-04-14T08:29:11.401Z,9.19
2019-04-14T08:31:42.308Z,9.29
2019-04-14T08:34:13.378Z,9.10
2019-04-14T08:36:44.384Z,9.23
2019-04-14T08:39:15.459Z,9.39
2019-04-14T08:41:48.082Z,9.38
2019-04-14T08:44:24.442Z,9.03
2019-04-14T08:47:02.976Z,9.06
2019-04-14T08:49:41.556Z,9.10
2019-04-14T08:52:14.119Z,9.18
2019-04-14T08:54:47.515Z,8.72
2019-04-14T08:57:32.293Z,8.73
2019-04-14T09:00:06.049Z,8.91
2019-04-14T09:03:05.352Z,9.05
2019-04-14T09:05:43.897Z,9.17
2019-04-14T09:08:16.448Z,9.02
2019-04-14T09:11:04.146Z,8.97
2019-04-14T09:13:35.155Z,8.66
2019-04-14T09:16:07.083Z,8.65
2019-04-14T09:18:39.219Z,8.71
2019-04-14T09:21:10.200Z,8.74
2019-04-14T09:23:41.148Z,8.65
2019-04-14T09:26:12.203Z,8.69
2019-04-14T09:28:43.105Z,8.60
2019-04-14T09:31:14.972Z,8.45
2019-04-14T09:33:46.054Z,8.74
2019-04-14T09:36:17.133Z,8.82
2019-04-14T09:38:48.170Z,8.81
2019-04-14T09:41:19.224Z,8.68
2019-04-14T09:43:50.315Z,8.67
2019-04-14T09:46:22.569Z,8.60
2019-04-14T09:48:53.575Z,8.62
2019-04-14T09:51:24.592Z,8.53
2019-04-14T09:53:55.538Z,8.44
2019-04-14T09:56:28.214Z,8.57
2019-04-14T09:58:59.902Z,8.55
2019-04-14T10:01:33.810Z,8.43
2019-04-14T10:04:04.920Z,8.44
2019-04-14T10:06:35.995Z,8.50
2019-04-14T10:09:07.715Z,8.53
2019-04-14T10:11:48.611Z,8.59
2019-04-14T10:14:11.576Z,8.61
2019-04-14T10:16:43.550Z,8.54
2019-04-14T10:19:14.497Z,8.59
2019-04-14T10:21:45.585Z,8.60
2019-04-14T10:24:16.605Z,8.62
2019-04-14T10:26:47.643Z,8.66
2019-04-14T10:29:18.674Z,8.63
2019-04-14T10:31:50.630Z,8.59
2019-04-14T10:34:21.705Z,8.57
2019-04-14T10:36:52.649Z,8.72
2019-04-14T10:39:23.609Z,8.88
2019-04-14T10:41:54.639Z,8.70
2019-04-14T10:44:25.563Z,8.67
2019-04-14T10:46:57.502Z,8.93
2019-04-14T10:49:28.523Z,8.78
2019-04-14T10:51:59.541Z,8.91
2019-04-14T10:54:30.464Z,8.86
2019-04-14T10:57:02.193Z,8.72
2019-04-14T10:59:33.049Z,8.91
2019-04-14T11:02:05.064Z,8.73
2019-04-14T11:04:35.982Z,8.87
2019-04-14T11:07:11.636Z,9.06
2019-04-14T11:09:42.621Z,9.09
2019-04-14T11:12:13.618Z,9.22
2019-04-14T11:14:45.076Z,9.19
2019-04-14T11:17:17.066Z,9.25
2019-04-14T11:19:48.118Z,9.26
2019-04-14T11:22:19.149Z,9.41
2019-04-14T11:24:50.058Z,9.47
2019-04-14T11:27:22.724Z,9.42
2019-04-14T11:29:54.117Z,9.36
2019-04-14T11:32:30.817Z,9.38
2019-04-14T11:35:03.396Z,9.23
2019-04-14T11:37:48.066Z,9.32
2019-04-14T11:40:24.467Z,9.53
2019-04-14T11:42:55.479Z,9.43
2019-04-14T11:45:26.431Z,9.45
2019-04-14T11:47:57.465Z,9.35
2019-04-14T11:50:28.385Z,9.19
2019-04-14T11:52:59.294Z,9.11
2019-04-14T11:55:30.830Z,8.84
2019-04-14T11:58:02.963Z,9.12
2019-04-14T12:00:41.391Z,8.90
2019-04-14T12:03:16.555Z,8.89
2019-04-14T12:06:00.434Z,8.92
2019-04-14T12:08:33.240Z,8.86
2019-04-14T12:11:04.425Z,8.98
2019-04-14T12:13:35.534Z,8.85
2019-04-14T12:16:07.054Z,8.86
2019-04-14T12:18:39.128Z,8.74
2019-04-14T12:21:10.038Z,8.65
2019-04-14T12:23:41.024Z,8.56
2019-04-14T12:26:11.927Z,8.50
2019-04-14T12:28:42.998Z,8.59
2019-04-14T12:31:19.611Z,8.40
2019-04-14T12:33:50.541Z,8.19
2019-04-14T12:36:21.653Z,8.24
2019-04-14T12:38:52.573Z,8.31
2019-04-14T12:41:26.571Z,8.38
2019-04-14T12:43:59.364Z,8.12
2019-04-14T12:46:31.934Z,8.15
2019-04-14T12:49:08.100Z,8.16
2019-04-14T12:51:55.705Z,8.30
2019-04-14T12:54:27.608Z,8.24
2019-04-14T12:56:58.530Z,8.12
2019-04-14T12:59:30.524Z,8.17
2019-04-14T13:02:11.980Z,8.17
2019-04-14T13:04:43.936Z,8.06
2019-04-14T13:07:14.856Z,7.98
2019-04-14T13:09:48.070Z,8.02
2019-04-14T13:12:18.998Z,7.81
2019-04-14T13:14:50.056Z,7.85
2019-04-14T13:17:21.030Z,7.85
2019-04-14T13:19:52.255Z,7.96
2019-04-14T13:22:33.351Z,7.81
2019-04-14T13:24:55.911Z,7.99
2019-04-14T13:27:26.919Z,7.87
2019-04-14T13:29:58.006Z,7.89
2019-04-14T13:32:35.811Z,7.92
2019-04-14T13:35:01.972Z,7.91
2019-04-14T13:37:32.869Z,7.83
2019-04-14T13:40:05.744Z,7.88
2019-04-14T13:42:36.665Z,7.94
2019-04-14T13:45:07.835Z,7.87
2019-04-14T13:47:38.765Z,7.98
2019-04-14T13:50:10.547Z,8.06
2019-04-14T13:52:47.170Z,8.15
2019-04-14T13:55:14.564Z,8.25
2019-04-14T13:57:47.007Z,8.24
2019-04-14T14:00:21.523Z,8.07
2019-04-14T14:02:52.469Z,8.18
2019-04-14T14:05:24.227Z,8.14
2019-04-14T14:07:55.125Z,7.99
2019-04-14T14:10:26.100Z,8.14
2019-04-14T14:13:12.181Z,8.13
2019-04-14T14:15:47.587Z,8.19
2019-04-14T14:18:26.351Z,8.08
2019-04-14T14:21:02.830Z,7.90
2019-04-14T14:23:38.418Z,7.95
2019-04-14T14:26:11.025Z,8.02
2019-04-14T14:28:41.963Z,8.08
2019-04-14T14:31:12.983Z,8.02
2019-04-14T14:33:45.348Z,8.01
2019-04-14T14:36:16.649Z,8.04
2019-04-14T14:38:50.702Z,7.89
2019-04-14T14:41:21.704Z,7.87
2019-04-14T14:43:52.688Z,7.82
2019-04-14T14:46:28.094Z,7.88
2019-04-14T14:49:16.764Z,7.90
2019-04-14T14:52:00.284Z,7.88
2019-04-14T14:54:31.213Z,7.88
2019-04-14T14:57:02.123Z,7.81
2019-04-14T14:59:33.009Z,7.85
2019-04-14T15:02:03.989Z,7.78
2019-04-14T15:04:34.874Z,7.84
2019-04-14T15:07:06.678Z,7.85
2019-04-14T15:09:37.574Z,7.57
2019-04-14T15:12:10.159Z,7.82
2019-04-14T15:14:41.143Z,7.66
2019-04-14T15:17:12.162Z,7.72
2019-04-14T15:19:43.929Z,7.74
2019-04-14T15:22:15.853Z,7.76
2019-04-14T15:24:46.857Z,7.70
2019-04-14T15:27:19.273Z,7.65
2019-04-14T15:29:50.227Z,7.73
2019-04-14T15:32:21.257Z,7.69
2019-04-14T15:34:52.279Z,7.72
2019-04-14T15:37:25.683Z,7.60
2019-04-14T15:39:57.176Z,7.69
2019-04-14T15:42:28.252Z,7.59
2019-04-14T15:44:59.254Z,7.62
2019-04-14T15:47:30.198Z,7.67
2019-04-14T15:50:01.190Z,7.58
2019-04-14T15:52:32.242Z,7.45
2019-04-14T15:55:03.324Z,7.34
2019-04-14T15:57:35.919Z,7.25
2019-04-14T16:00:16.124Z,7.32
2019-04-14T16:02:52.498Z,7.28
2019-04-14T16:05:25.093Z,7.35
2019-04-14T16:08:02.340Z,7.26
2019-04-14T16:10:46.849Z,7.25
2019-04-14T16:13:20.641Z,7.17
2019-04-14T16:15:53.222Z,7.09
2019-04-14T16:18:41.067Z,7.00
2019-04-14T16:21:11.977Z,6.94
2019-04-14T16:23:50.300Z,6.85
2019-04-14T16:26:26.948Z,6.87
2019-04-14T16:29:11.805Z,6.76
2019-04-14T16:31:47.322Z,6.81
2019-04-14T16:34:19.925Z,6.84
2019-04-14T16:36:52.304Z,6.85
2019-04-14T16:39:23.328Z,6.86
2019-04-14T16:41:54.246Z,6.81
2019-04-14T16:44:25.202Z,6.74
2019-04-14T16:46:56.123Z,6.60
2019-04-14T16:49:27.094Z,6.57
2019-04-14T16:52:02.442Z,6.63
2019-04-14T16:54:35.850Z,6.61
2019-04-14T16:57:17.346Z,6.52
2019-04-14T16:59:48.371Z,6.47
2019-04-14T17:02:19.363Z,6.46
2019-04-14T17:04:50.317Z,6.49
2019-04-14T17:07:21.239Z,6.44
2019-04-14T17:09:53.906Z,6.39
2019-04-14T17:12:24.857Z,6.32
2019-04-14T17:15:00.166Z,6.28
2019-04-14T17:17:48.806Z,6.27
2019-04-14T17:20:21.470Z,6.18
2019-04-14T17:22:54.042Z,6.09
2019-04-14T17:25:30.212Z,6.08
2019-04-14T17:28:14.668Z,5.97
2019-04-14T17:30:47.235Z,6.00
2019-04-14T17:33:38.061Z,5.98
2019-04-14T17:36:13.596Z,5.99
2019-04-14T17:38:49.095Z,5.89
2019-04-14T17:41:28.524Z,5.82
2019-04-14T17:44:10.034Z,5.83
2019-04-14T17:46:59.004Z,5.74
2019-04-14T17:49:31.543Z,5.66
2019-04-14T17:52:20.213Z,5.67
2019-04-14T17:55:04.756Z,5.69
2019-04-14T17:57:51.406Z,5.65
2019-04-14T18:00:39.968Z,5.62
2019-04-14T18:03:18.516Z,5.60
2019-04-14T18:05:58.642Z,5.52
2019-04-14T18:08:31.235Z,5.54
2019-04-14T18:11:03.750Z,5.54
2019-04-14T18:13:37.150Z,5.51
2019-04-14T18:16:21.531Z,5.46
2019-04-14T18:19:00.324Z,5.49
2019-04-14T18:21:31.220Z,5.47
2019-04-14T18:24:02.635Z,5.39
2019-04-14T18:26:33.796Z,5.48
2019-04-14T18:29:23.564Z,5.47
2019-04-14T18:31:56.108Z,5.42
2019-04-14T18:34:40.846Z,5.47
2019-04-14T18:37:13.385Z,5.44
2019-04-14T18:39:45.966Z,5.40
2019-04-14T18:42:18.495Z,5.43
2019-04-14T18:45:08.095Z,5.44
2019-04-14T18:47:46.430Z,5.50
2019-04-14T18:50:35.065Z,5.44
2019-04-14T18:53:23.727Z,5.52
2019-04-14T18:55:56.306Z,5.38
2019-04-14T18:58:35.010Z,5.37
2019-04-14T19:01:07.576Z,5.34
2019-04-14T19:03:38.482Z,5.33
2019-04-14T19:06:11.069Z,5.30
2019-04-14T19:08:41.955Z,5.34
2019-04-14T19:11:16.523Z,5.35
2019-04-14T19:13:52.012Z,5.40
2019-04-14T19:16:39.635Z,5.40
2019-04-14T19:19:10.648Z,5.35
2019-04-14T19:21:41.780Z,5.34
2019-04-14T19:24:12.876Z,5.33
2019-04-14T19:26:43.992Z,5.33
2019-04-14T19:29:14.933Z,5.35
2019-04-14T19:31:45.936Z,5.35
2019-04-14T19:34:16.870Z,5.37
2019-04-14T19:36:47.816Z,5.33
2019-04-14T19:39:18.820Z,5.35
2019-04-14T19:41:49.774Z,5.26
2019-04-14T19:44:20.742Z,5.27
2019-04-14T19:47:02.634Z,5.25
2019-04-14T19:49:33.949Z,5.34
2019-04-14T19:52:04.985Z,5.27
2019-04-14T19:54:36.140Z,5.22
2019-04-14T19:57:07.236Z,5.27
2019-04-14T19:59:38.339Z,5.29
2019-04-14T20:02:09.459Z,5.22
2019-04-14T20:04:41.868Z,5.21
2019-04-14T20:07:16.012Z,5.19
2019-04-14T20:09:47.114Z,5.23
2019-04-14T20:12:18.258Z,5.28
2019-04-14T20:14:49.461Z,5.22
2019-04-14T20:17:30.842Z,5.21
2019-04-14T20:20:06.554Z,5.19
2019-04-14T20:22:51.207Z,5.20
2019-04-14T20:25:40.162Z,5.17
2019-04-14T20:28:27.839Z,5.15
2019-04-14T20:31:00.475Z,5.21
2019-04-14T20:33:31.586Z,5.18
2019-04-14T20:36:05.350Z,5.19
2019-04-14T20:38:36.336Z,5.15
2019-04-14T20:41:07.530Z,5.14
2019-04-14T20:43:38.542Z,5.16
2019-04-14T20:46:09.560Z,5.24
2019-04-14T20:48:40.663Z,5.25
2019-04-14T20:51:14.120Z,5.24
2019-04-14T20:53:45.266Z,5.27
2019-04-14T20:56:16.437Z,5.27
2019-04-14T20:58:47.642Z,5.26
2019-04-14T21:01:19.425Z,5.22
2019-04-14T21:03:54.868Z,5.21
2019-04-14T21:06:28.411Z,5.19
2019-04-14T21:09:02.794Z,5.15
2019-04-14T21:11:35.553Z,5.10
2019-04-14T21:14:27.010Z,5.04
2019-04-14T21:17:02.694Z,4.97
2019-04-14T21:19:51.635Z,4.86
2019-04-14T21:22:30.250Z,4.77
2019-04-14T21:25:20.914Z,4.61
2019-04-14T21:28:07.220Z,4.50
2019-04-14T21:30:45.552Z,4.39
2019-04-14T21:33:18.178Z,4.33
2019-04-14T21:35:50.717Z,4.26
2019-04-14T21:38:23.298Z,4.20
2019-04-14T21:40:57.782Z,4.14
2019-04-14T21:43:28.725Z,4.07
2019-04-14T21:45:59.622Z,4.01
2019-04-14T21:48:30.547Z,3.92
2019-04-14T21:51:01.446Z,3.90
2019-04-14T21:53:33.326Z,3.84
2019-04-14T21:56:13.326Z,3.78
2019-04-14T21:58:38.557Z,3.73
2019-04-14T22:01:39.089Z,3.68
2019-04-14T22:04:14.855Z,3.63
2019-04-14T22:07:03.643Z,3.56
2019-04-14T22:09:36.212Z,3.50
2019-04-14T22:12:07.682Z,3.44
2019-04-14T22:14:38.678Z,3.39
2019-04-14T22:17:09.714Z,3.34
2019-04-14T22:19:40.647Z,3.28
2019-04-14T22:22:11.608Z,3.21
2019-04-14T22:24:43.578Z,3.15
2019-04-14T22:27:14.484Z,3.10
2019-04-14T22:29:45.417Z,3.03
2019-04-14T22:32:16.318Z,3.03
2019-04-14T22:34:47.310Z,2.99
2019-04-14T22:37:18.234Z,2.98
2019-04-14T22:39:49.214Z,2.93
2019-04-14T22:42:20.530Z,2.88
2019-04-14T22:44:51.544Z,2.88
2019-04-14T22:47:22.481Z,2.87
2019-04-14T22:49:53.483Z,2.81
2019-04-14T22:52:24.381Z,2.81
2019-04-14T22:54:55.488Z,2.79
2019-04-14T22:57:26.413Z,2.75
2019-04-14T22:59:57.352Z,2.64
2019-04-14T23:02:46.120Z,2.64
2019-04-14T23:05:30.836Z,2.66
2019-04-14T23:08:08.922Z,2.60
2019-04-14T23:10:41.413Z,2.56
2019-04-14T23:13:16.749Z,2.52
2019-04-14T23:16:04.468Z,2.50
2019-04-14T23:18:39.961Z,2.48
2019-04-14T23:21:28.890Z,2.44
2019-04-14T23:24:07.167Z,2.38
2019-04-14T23:26:42.161Z,2.31
2019-04-14T23:29:10.959Z,2.31
2019-04-14T23:31:41.973Z,2.34
2019-04-14T23:34:12.911Z,2.32
2019-04-14T23:36:43.853Z,2.24
2019-04-14T23:39:14.818Z,2.24
2019-04-14T23:41:45.822Z,2.22
2019-04-14T23:44:16.788Z,2.17
2019-04-14T23:46:47.718Z,2.14
2019-04-14T23:50:20.096Z,2.12
2019-04-14T23:57:12.591Z,1.99
2019-04-14T23:59:43.734Z,1.92
